createdAt,value
2018-07-19T00:01:08.196Z,15.30
2018-07-19T00:06:04.825Z,15.20
2018-07-19T00:08:33.045Z,15.10
2018-07-19T00:11:01.367Z,15.10
2018-07-19T00:13:29.588Z,15.10
2018-07-19T00:15:59.797Z,15.00
2018-07-19T00:20:57.308Z,15.00
2018-07-19T00:23:25.959Z,15.00
2018-07-19T00:28:23.027Z,14.90
2018-07-19T00:30:51.229Z,14.90
2018-07-19T00:33:19.436Z,14.90
2018-07-19T00:35:47.639Z,14.80
2018-07-19T00:38:15.808Z,14.80
2018-07-19T00:40:44.085Z,14.80
2018-07-19T00:43:12.382Z,14.80
2018-07-19T00:45:40.545Z,14.80
2018-07-19T00:48:08.768Z,14.70
2018-07-19T00:50:36.978Z,14.70
2018-07-19T00:53:05.280Z,14.60
2018-07-19T00:55:33.750Z,14.60
2018-07-19T00:58:01.992Z,14.50
2018-07-19T01:00:30.147Z,14.50
2018-07-19T01:02:58.876Z,14.50
2018-07-19T01:05:27.024Z,14.40
2018-07-19T01:07:55.144Z,14.30
2018-07-19T01:10:23.317Z,14.30
2018-07-19T01:12:51.443Z,14.30
2018-07-19T01:15:19.622Z,14.20
2018-07-19T01:17:47.796Z,14.20
2018-07-19T01:20:15.971Z,14.20
2018-07-19T01:22:44.173Z,14.30
2018-07-19T01:25:12.337Z,14.20
2018-07-19T01:27:40.488Z,14.20
2018-07-19T01:30:08.696Z,14.20
2018-07-19T01:32:36.971Z,14.10
2018-07-19T01:35:05.303Z,14.00
2018-07-19T01:37:33.584Z,14.00
2018-07-19T01:40:01.835Z,14.00
2018-07-19T01:42:39.937Z,14.00
2018-07-19T01:45:08.799Z,14.00
2018-07-19T01:47:37.169Z,14.00
2018-07-19T01:50:06.216Z,14.00
2018-07-19T01:52:34.507Z,14.00
2018-07-19T01:55:02.719Z,13.90
2018-07-19T01:57:31.070Z,13.90
2018-07-19T01:59:59.420Z,13.80
2018-07-19T02:02:27.696Z,13.80
2018-07-19T02:04:56.145Z,13.80
2018-07-19T02:07:24.366Z,13.80
2018-07-19T02:09:52.845Z,13.70
2018-07-19T02:12:21.549Z,13.70
2018-07-19T02:14:50.028Z,13.80
2018-07-19T02:17:18.511Z,13.70
2018-07-19T02:19:47.025Z,13.70
2018-07-19T02:22:15.691Z,13.70
2018-07-19T02:24:44.072Z,13.70
2018-07-19T02:27:13.667Z,13.70
2018-07-19T02:29:42.470Z,13.70
2018-07-19T02:32:10.974Z,13.70
2018-07-19T02:34:39.300Z,13.70
2018-07-19T02:37:07.540Z,13.80
2018-07-19T02:39:35.886Z,13.70
2018-07-19T02:42:04.336Z,13.70
2018-07-19T02:44:32.624Z,13.70
2018-07-19T02:47:01.056Z,13.70
2018-07-19T02:49:29.298Z,13.70
2018-07-19T02:51:57.623Z,13.60
2018-07-19T02:54:25.858Z,13.60
2018-07-19T02:56:54.334Z,13.60
2018-07-19T02:59:22.807Z,13.50
2018-07-19T03:04:19.104Z,13.50
2018-07-19T03:06:47.480Z,13.40
2018-07-19T03:09:15.801Z,13.40
2018-07-19T03:11:44.017Z,13.40
2018-07-19T03:14:12.330Z,13.50
2018-07-19T03:16:40.720Z,13.30
2018-07-19T03:19:09.283Z,13.30
2018-07-19T03:21:37.654Z,13.30
2018-07-19T03:24:05.916Z,13.30
2018-07-19T03:26:34.164Z,13.30
2018-07-19T03:29:02.500Z,13.30
2018-07-19T03:31:30.708Z,13.30
2018-07-19T03:34:00.289Z,13.40
2018-07-19T03:36:28.918Z,13.40
2018-07-19T03:38:58.088Z,13.40
2018-07-19T03:41:27.097Z,13.40
2018-07-19T03:44:00.818Z,13.40
2018-07-19T03:46:33.179Z,13.30
2018-07-19T03:49:01.520Z,13.40
2018-07-19T03:51:29.961Z,13.40
2018-07-19T03:54:03.904Z,13.40
2018-07-19T03:56:36.968Z,13.40
2018-07-19T03:59:06.362Z,13.40
2018-07-19T04:02:13.746Z,13.50
2018-07-19T04:04:42.455Z,13.40
2018-07-19T04:07:15.940Z,13.50
2018-07-19T04:09:45.754Z,13.50
2018-07-19T04:12:14.226Z,13.50
2018-07-19T04:14:42.399Z,13.60
2018-07-19T04:17:10.632Z,13.70
2018-07-19T04:19:38.779Z,13.70
2018-07-19T04:22:08.282Z,13.70
2018-07-19T04:24:36.534Z,13.70
2018-07-19T04:27:04.851Z,13.60
2018-07-19T04:29:33.104Z,13.70
2018-07-19T04:32:01.493Z,13.70
2018-07-19T04:34:29.780Z,13.80
2018-07-19T04:36:58.081Z,13.90
2018-07-19T04:39:26.256Z,14.00
2018-07-19T04:41:54.503Z,14.10
2018-07-19T04:44:22.805Z,14.10
2018-07-19T04:46:55.265Z,14.10
2018-07-19T04:49:23.536Z,14.10
2018-07-19T04:51:51.916Z,14.20
2018-07-19T04:54:20.266Z,14.30
2018-07-19T04:56:48.544Z,14.40
2018-07-19T04:59:16.832Z,14.30
2018-07-19T05:01:45.336Z,14.40
2018-07-19T05:04:13.785Z,14.50
2018-07-19T05:06:42.240Z,14.60
2018-07-19T05:09:11.199Z,14.70
2018-07-19T05:11:39.627Z,14.70
2018-07-19T05:14:07.973Z,14.80
2018-07-19T05:16:36.644Z,14.80
2018-07-19T05:19:05.315Z,14.90
2018-07-19T05:21:34.025Z,14.90
2018-07-19T05:24:02.376Z,14.90
2018-07-19T05:26:30.631Z,14.90
2018-07-19T05:28:58.908Z,14.90
2018-07-19T05:31:27.112Z,15.10
2018-07-19T05:33:55.373Z,15.10
2018-07-19T05:36:23.688Z,15.10
2018-07-19T05:38:51.932Z,15.20
2018-07-19T05:41:20.375Z,15.20
2018-07-19T05:43:48.796Z,15.20
2018-07-19T05:46:17.473Z,15.20
2018-07-19T05:48:45.744Z,15.20
2018-07-19T05:51:14.012Z,15.20
2018-07-19T05:53:42.256Z,15.20
2018-07-19T05:56:10.593Z,15.30
2018-07-19T05:58:38.784Z,15.40
2018-07-19T06:01:07.091Z,15.40
2018-07-19T06:03:35.289Z,15.40
2018-07-19T06:06:03.567Z,15.50
2018-07-19T06:08:31.760Z,15.60
2018-07-19T06:10:59.978Z,15.60
2018-07-19T06:13:28.184Z,15.70
2018-07-19T06:15:56.385Z,15.80
2018-07-19T06:18:27.227Z,15.90
2018-07-19T06:20:58.080Z,16.00
2018-07-19T06:23:26.313Z,16.00
2018-07-19T06:25:54.564Z,16.00
2018-07-19T06:28:23.047Z,16.20
2018-07-19T06:30:51.368Z,16.30
2018-07-19T06:33:19.724Z,16.50
2018-07-19T06:35:48.342Z,16.50
2018-07-19T06:38:16.793Z,16.60
2018-07-19T06:40:45.050Z,16.70
2018-07-19T06:43:13.291Z,16.80
2018-07-19T06:45:41.843Z,16.90
2018-07-19T06:48:10.109Z,16.90
2018-07-19T06:50:38.398Z,17.00
2018-07-19T06:53:06.998Z,17.20
2018-07-19T06:55:35.414Z,17.30
2018-07-19T06:58:03.735Z,17.40
2018-07-19T07:00:31.960Z,17.50
2018-07-19T07:03:00.748Z,17.60
2018-07-19T07:05:29.982Z,17.70
2018-07-19T07:07:58.437Z,17.90
2018-07-19T07:10:26.952Z,17.90
2018-07-19T07:12:55.227Z,18.10
2018-07-19T07:15:23.472Z,18.10
2018-07-19T07:17:51.706Z,18.20
2018-07-19T07:20:20.212Z,18.20
2018-07-19T07:22:48.592Z,18.30
2018-07-19T07:25:17.206Z,18.40
2018-07-19T07:27:45.658Z,18.50
2018-07-19T07:30:13.968Z,18.60
2018-07-19T07:32:42.564Z,18.60
2018-07-19T07:35:11.518Z,18.70
2018-07-19T07:37:39.919Z,18.80
2018-07-19T07:40:08.619Z,18.90
2018-07-19T07:42:37.234Z,18.90
2018-07-19T07:45:06.196Z,19.10
2018-07-19T07:47:34.449Z,19.10
2018-07-19T07:50:02.705Z,19.30
2018-07-19T07:52:31.004Z,19.40
2018-07-19T07:54:59.395Z,19.50
2018-07-19T07:57:27.828Z,19.50
2018-07-19T07:59:56.187Z,19.50
2018-07-19T08:02:24.688Z,19.60
2018-07-19T08:04:53.070Z,19.60
2018-07-19T08:07:22.105Z,19.70
2018-07-19T08:09:50.442Z,19.80
2018-07-19T08:12:19.382Z,19.90
2018-07-19T08:14:47.754Z,19.90
2018-07-19T08:17:16.174Z,20.00
2018-07-19T08:19:44.502Z,20.00
2018-07-19T08:22:13.727Z,20.10
2018-07-19T08:24:42.181Z,20.20
2018-07-19T08:27:11.417Z,20.20
2018-07-19T08:29:39.829Z,20.20
2018-07-19T08:32:08.799Z,20.20
2018-07-19T08:34:37.441Z,20.30
2018-07-19T08:37:06.434Z,20.30
2018-07-19T08:39:34.874Z,20.40
2018-07-19T08:42:03.443Z,20.50
2018-07-19T08:44:32.085Z,20.50
2018-07-19T08:47:02.472Z,20.50
2018-07-19T08:49:31.049Z,20.50
2018-07-19T08:51:59.372Z,20.60
2018-07-19T08:54:27.929Z,20.80
2018-07-19T08:56:58.677Z,20.70
2018-07-19T08:59:27.138Z,20.80
2018-07-19T09:01:55.561Z,20.90
2018-07-19T09:04:24.907Z,20.80
2018-07-19T09:06:55.185Z,20.90
2018-07-19T09:09:23.607Z,21.00
2018-07-19T09:11:51.868Z,21.00
2018-07-19T09:14:20.248Z,21.10
2018-07-19T09:16:48.719Z,21.20
2018-07-19T09:19:17.061Z,21.10
2018-07-19T09:21:45.434Z,21.10
2018-07-19T09:24:13.852Z,21.20
2018-07-19T09:26:42.154Z,21.40
2018-07-19T09:29:10.768Z,21.40
2018-07-19T09:31:40.971Z,21.40
2018-07-19T09:34:09.373Z,21.40
2018-07-19T09:36:37.965Z,21.40
2018-07-19T09:39:10.652Z,21.50
2018-07-19T09:41:39.227Z,21.60
2018-07-19T09:44:07.709Z,21.70
2018-07-19T09:46:36.495Z,21.80
2018-07-19T09:49:04.917Z,21.90
2018-07-19T09:51:33.463Z,21.90
2018-07-19T09:54:02.451Z,22.10
2018-07-19T09:56:31.015Z,22.10
2018-07-19T09:59:02.244Z,22.20
2018-07-19T10:01:30.863Z,22.30
2018-07-19T10:03:59.164Z,22.30
2018-07-19T10:06:27.786Z,22.30
2018-07-19T10:08:56.027Z,22.40
2018-07-19T10:11:24.260Z,22.50
2018-07-19T10:13:52.566Z,22.50
2018-07-19T10:16:21.456Z,22.60
2018-07-19T10:18:51.963Z,22.60
2018-07-19T10:21:20.673Z,22.60
2018-07-19T10:23:49.185Z,22.70
2018-07-19T10:26:18.941Z,22.80
2018-07-19T10:28:47.420Z,22.70
2018-07-19T10:31:15.846Z,22.70
2018-07-19T10:33:44.083Z,22.80
2018-07-19T10:36:12.369Z,23.00
2018-07-19T10:38:40.957Z,23.00
2018-07-19T10:41:09.573Z,23.10
2018-07-19T10:43:38.061Z,23.20
2018-07-19T10:46:06.513Z,23.30
2018-07-19T10:48:34.723Z,23.50
2018-07-19T10:51:03.940Z,23.70
2018-07-19T10:53:34.534Z,23.80
2018-07-19T10:56:02.862Z,23.80
2018-07-19T10:58:32.443Z,23.70
2018-07-19T11:01:00.906Z,23.60
2018-07-19T11:03:29.479Z,23.60
2018-07-19T11:06:08.688Z,23.50
2018-07-19T11:08:53.180Z,23.60
2018-07-19T11:38:37.456Z,24.00
2018-07-19T11:49:55.332Z,23.80
2018-07-19T11:52:31.256Z,23.90
2018-07-19T11:55:01.407Z,23.90
2018-07-19T11:57:34.625Z,24.10
2018-07-19T12:00:04.727Z,24.10
2018-07-19T12:02:33.696Z,24.20
2018-07-19T12:08:38.142Z,24.40
2018-07-19T12:11:19.489Z,24.50
2018-07-19T12:19:32.371Z,24.90
2018-07-19T12:24:53.170Z,25.00
2018-07-19T12:27:21.914Z,25.10
2018-07-19T12:29:52.194Z,25.00
2018-07-19T12:32:21.647Z,25.00
2018-07-19T12:34:52.777Z,24.90
2018-07-19T12:37:22.825Z,24.80
2018-07-19T12:39:58.140Z,24.70
2018-07-19T12:42:29.128Z,24.50
2018-07-19T12:44:58.406Z,24.50
2018-07-19T12:47:28.396Z,24.50
2018-07-19T12:50:02.980Z,24.30
2018-07-19T12:52:39.883Z,24.10
2018-07-19T12:57:54.841Z,24.10
2018-07-19T13:00:24.399Z,24.20
2018-07-19T13:03:02.174Z,24.40
2018-07-19T13:05:47.901Z,24.50
2018-07-19T13:08:16.221Z,24.50
2018-07-19T13:10:44.919Z,24.50
2018-07-19T13:13:13.176Z,24.60
2018-07-19T13:15:43.800Z,24.70
2018-07-19T13:18:12.084Z,24.80
2018-07-19T13:20:43.752Z,24.80
2018-07-19T13:23:12.458Z,24.70
2018-07-19T13:25:41.260Z,24.70
2018-07-19T13:28:11.887Z,24.70
2018-07-19T13:30:40.344Z,24.90
2018-07-19T13:33:10.486Z,25.00
2018-07-19T13:35:42.447Z,25.10
2018-07-19T13:38:12.811Z,25.20
2018-07-19T13:40:41.427Z,25.40
2018-07-19T13:43:10.338Z,25.50
2018-07-19T13:45:38.862Z,25.50
2018-07-19T13:48:08.233Z,25.30
2018-07-19T13:50:41.788Z,24.80
2018-07-19T13:53:36.182Z,24.70
2018-07-19T13:56:06.622Z,24.60
2018-07-19T13:58:37.259Z,24.50
2018-07-19T14:01:10.366Z,24.40
2018-07-19T14:03:42.104Z,24.40
2018-07-19T14:06:11.116Z,24.40
2018-07-19T14:08:40.931Z,24.40
2018-07-19T14:11:11.967Z,24.40
2018-07-19T14:13:42.756Z,24.30
2018-07-19T14:16:12.899Z,24.20
2018-07-19T14:18:43.538Z,24.10
2018-07-19T14:21:12.276Z,24.00
2018-07-19T14:23:43.281Z,24.00
2018-07-19T14:26:17.462Z,23.90
2018-07-19T14:28:57.610Z,23.80
2018-07-19T14:32:03.067Z,23.90
2018-07-19T14:34:52.019Z,23.90
2018-07-19T14:37:33.146Z,23.80
2018-07-19T14:54:40.290Z,23.80
2018-07-19T15:00:16.512Z,23.50
2018-07-19T15:06:03.504Z,23.60
2018-07-19T15:09:04.333Z,23.60
2018-07-19T15:11:54.214Z,23.60
2018-07-19T15:20:35.487Z,23.40
2018-07-19T15:23:09.376Z,23.50
2018-07-19T15:25:46.194Z,23.50
2018-07-19T15:28:32.307Z,23.50
2018-07-19T15:49:23.998Z,23.40
2018-07-19T15:54:58.770Z,23.40
2018-07-19T15:57:47.146Z,23.50
2018-07-19T16:00:23.619Z,23.50
2018-07-19T16:02:59.727Z,23.50
2018-07-19T16:08:26.114Z,23.60
2018-07-19T16:11:05.655Z,23.60
2018-07-19T16:13:34.884Z,23.60
2018-07-19T16:16:03.844Z,23.60
2018-07-19T16:18:35.245Z,23.60
2018-07-19T16:21:04.014Z,23.60
2018-07-19T16:23:35.675Z,23.60
2018-07-19T16:26:14.292Z,23.50
2018-07-19T16:28:43.239Z,23.60
2018-07-19T16:31:12.639Z,23.60
2018-07-19T16:33:41.740Z,23.60
2018-07-19T16:36:10.660Z,23.50
2018-07-19T16:38:51.869Z,23.60
2018-07-19T16:41:22.399Z,23.60
2018-07-19T16:43:51.004Z,23.50
2018-07-19T16:46:19.798Z,23.50
2018-07-19T16:49:01.258Z,23.40
2018-07-19T16:51:29.763Z,23.40
2018-07-19T16:53:59.133Z,23.40
2018-07-19T16:56:27.381Z,23.30
2018-07-19T16:58:55.942Z,23.20
2018-07-19T17:01:24.138Z,23.20
2018-07-19T17:03:52.485Z,23.20
2018-07-19T17:06:20.644Z,23.20
2018-07-19T17:08:48.844Z,23.10
2018-07-19T17:11:17.063Z,23.10
2018-07-19T17:13:45.334Z,23.10
2018-07-19T17:16:13.616Z,23.10
2018-07-19T17:18:42.096Z,23.10
2018-07-19T17:21:10.309Z,23.10
2018-07-19T17:23:38.526Z,23.10
2018-07-19T17:26:06.725Z,23.00
2018-07-19T17:28:34.929Z,23.00
2018-07-19T17:31:03.131Z,23.00
2018-07-19T17:33:31.334Z,22.90
2018-07-19T17:35:59.538Z,22.90
2018-07-19T17:38:29.272Z,22.80
2018-07-19T17:40:57.551Z,22.80
2018-07-19T17:43:26.299Z,22.70
2018-07-19T17:45:54.575Z,22.70
2018-07-19T17:48:23.714Z,22.70
2018-07-19T17:50:53.419Z,22.60
2018-07-19T17:53:21.910Z,22.60
2018-07-19T17:55:50.430Z,22.60
2018-07-19T17:58:20.830Z,22.50
2018-07-19T18:00:49.530Z,22.50
2018-07-19T18:03:21.314Z,22.40
2018-07-19T18:05:50.004Z,22.40
2018-07-19T18:08:18.329Z,22.30
2018-07-19T18:10:46.697Z,22.40
2018-07-19T18:13:14.869Z,22.30
2018-07-19T18:15:43.132Z,22.20
2018-07-19T18:18:11.527Z,22.20
2018-07-19T18:20:39.944Z,22.20
2018-07-19T18:23:09.073Z,22.10
2018-07-19T18:25:38.610Z,22.10
2018-07-19T18:28:21.685Z,22.00
2018-07-19T18:30:51.197Z,22.00
2018-07-19T18:33:19.648Z,21.90
2018-07-19T18:35:48.996Z,21.90
2018-07-19T18:38:18.079Z,21.80
2018-07-19T18:40:49.689Z,21.80
2018-07-19T18:43:21.241Z,21.70
2018-07-19T18:45:56.601Z,21.60
2018-07-19T18:48:26.712Z,21.60
2018-07-19T18:50:57.028Z,21.40
2018-07-19T18:53:25.681Z,21.40
2018-07-19T18:55:54.024Z,21.30
2018-07-19T18:58:22.377Z,21.30
2018-07-19T19:00:50.642Z,21.10
2018-07-19T19:03:19.146Z,21.10
2018-07-19T19:05:47.941Z,21.10
2018-07-19T19:08:16.785Z,21.00
2018-07-19T19:10:45.393Z,20.90
2018-07-19T19:13:14.496Z,20.80
2018-07-19T19:15:43.096Z,20.80
2018-07-19T19:18:11.529Z,20.70
2018-07-19T19:20:39.980Z,20.70
2018-07-19T19:23:09.003Z,20.50
2018-07-19T19:25:38.323Z,20.50
2018-07-19T19:28:06.673Z,20.40
2018-07-19T19:30:36.023Z,20.40
2018-07-19T19:33:04.333Z,20.30
2018-07-19T19:35:33.049Z,20.20
2018-07-19T19:38:01.433Z,20.20
2018-07-19T19:40:29.824Z,20.10
2018-07-19T19:42:58.412Z,20.10
2018-07-19T19:45:26.765Z,20.00
2018-07-19T19:47:55.057Z,19.90
2018-07-19T19:50:28.832Z,19.80
2018-07-19T19:52:57.090Z,19.70
2018-07-19T19:55:25.366Z,19.70
2018-07-19T19:57:58.791Z,19.60
2018-07-19T20:00:27.076Z,19.50
2018-07-19T20:02:55.261Z,19.50
2018-07-19T20:05:23.952Z,19.40
2018-07-19T20:07:52.176Z,19.40
2018-07-19T20:10:20.395Z,19.30
2018-07-19T20:12:48.572Z,19.30
2018-07-19T20:15:16.864Z,19.30
2018-07-19T20:17:45.221Z,19.20
2018-07-19T20:20:14.456Z,19.10
2018-07-19T20:22:42.601Z,19.00
2018-07-19T20:25:10.772Z,19.00
2018-07-19T20:27:39.059Z,19.00
2018-07-19T20:30:07.330Z,18.90
2018-07-19T20:32:36.444Z,18.90
2018-07-19T20:35:04.645Z,18.80
2018-07-19T20:37:33.845Z,18.80
2018-07-19T20:40:02.087Z,18.70
2018-07-19T20:42:30.244Z,18.70
2018-07-19T20:44:58.422Z,18.60
2018-07-19T20:47:26.585Z,18.60
2018-07-19T20:49:54.826Z,18.50
2018-07-19T20:52:24.422Z,18.50
2018-07-19T20:54:52.760Z,18.50
2018-07-19T20:57:21.328Z,18.40
2018-07-19T20:59:49.894Z,18.40
2018-07-19T21:02:18.441Z,18.30
2018-07-19T21:04:46.668Z,18.20
2018-07-19T21:07:15.374Z,18.10
2018-07-19T21:09:43.680Z,18.10
2018-07-19T21:12:11.925Z,18.00
2018-07-19T21:14:40.335Z,18.00
2018-07-19T21:17:08.608Z,18.10
2018-07-19T21:19:38.137Z,18.00
2018-07-19T21:22:06.686Z,18.00
2018-07-19T21:24:35.190Z,17.90
2018-07-19T21:27:03.669Z,18.00
2018-07-19T21:29:32.073Z,18.00
2018-07-19T21:32:01.620Z,18.00
2018-07-19T21:34:31.097Z,17.90
2018-07-19T21:37:00.513Z,18.00
2018-07-19T21:39:29.768Z,17.90
2018-07-19T21:41:58.346Z,17.80
2018-07-19T21:44:26.688Z,17.70
2018-07-19T21:46:55.121Z,17.80
2018-07-19T21:49:24.741Z,17.80
2018-07-19T21:51:54.359Z,17.70
2018-07-19T21:54:24.176Z,17.60
2018-07-19T21:56:53.201Z,17.60
2018-07-19T21:59:21.951Z,17.50
2018-07-19T22:01:51.770Z,17.50
2018-07-19T22:04:21.638Z,17.40
2018-07-19T22:06:52.333Z,17.40
2018-07-19T22:09:27.221Z,17.30
2018-07-19T22:11:56.005Z,17.30
2018-07-19T22:14:27.226Z,17.30
2018-07-19T22:16:58.586Z,17.20
2018-07-19T22:19:37.295Z,17.20
2018-07-19T22:33:43.627Z,16.90
2018-07-19T22:36:11.770Z,16.80
2018-07-19T22:38:39.973Z,16.90
2018-07-19T22:41:15.806Z,16.90
2018-07-19T22:43:44.959Z,17.00
2018-07-19T22:46:13.437Z,17.00
2018-07-19T22:48:43.775Z,17.00
2018-07-19T22:51:12.277Z,17.10
2018-07-19T22:53:42.415Z,17.00
2018-07-19T22:56:16.120Z,17.10
2018-07-19T22:58:46.380Z,17.10
2018-07-19T23:01:16.938Z,17.10
2018-07-19T23:03:46.504Z,17.00
2018-07-19T23:06:16.477Z,17.00
2018-07-19T23:08:44.980Z,17.00
2018-07-19T23:11:17.793Z,17.00
2018-07-19T23:13:50.226Z,16.90
2018-07-19T23:16:23.719Z,16.90
2018-07-19T23:29:38.765Z,16.90
2018-07-19T23:32:26.151Z,16.80
2018-07-19T23:35:23.235Z,16.70
2018-07-19T23:38:32.114Z,16.60
